sensor_id;sensor_type;location;lat;lon;timestamp;pressure;altitude;pressure_sealevel;temperature;humidity
63708;BME280;67643;-34.198;22.084;2023-07-13T00:02:27;101588.66;;;15.81;45.86
63708;BME280;67643;-34.198;22.084;2023-07-13T00:04:56;101590.56;;;15.75;45.54
63708;BME280;67643;-34.198;22.084;2023-07-13T00:07:24;101590.31;;;15.27;45.86
63708;BME280;67643;-34.198;22.084;2023-07-13T00:09:52;101592.23;;;15.45;45.62
63708;BME280;67643;-34.198;22.084;2023-07-13T00:12:26;101589.40;;;15.29;45.85
63708;BME280;67643;-34.198;22.084;2023-07-13T00:14:56;101585.28;;;15.00;45.82
63708;BME280;67643;-34.198;22.084;2023-07-13T00:17:26;101589.03;;;15.41;45.93
63708;BME280;67643;-34.198;22.084;2023-07-13T00:19:55;101589.24;;;15.25;45.83
63708;BME280;67643;-34.198;22.084;2023-07-13T00:22:24;101583.32;;;15.67;45.84
63708;BME280;67643;-34.198;22.084;2023-07-13T00:24:54;101583.84;;;15.09;45.98
63708;BME280;67643;-34.198;22.084;2023-07-13T00:27:22;101580.22;;;15.15;45.87
63708;BME280;67643;-34.198;22.084;2023-07-13T00:29:50;101580.14;;;15.31;45.95
63708;BME280;67643;-34.198;22.084;2023-07-13T00:32:19;101577.58;;;15.15;45.79
63708;BME280;67643;-34.198;22.084;2023-07-13T00:34:48;101572.52;;;15.18;45.81
63708;BME280;67643;-34.198;22.084;2023-07-13T00:37:16;101572.15;;;15.50;45.60
63708;BME280;67643;-34.198;22.084;2023-07-13T00:39:45;101570.52;;;15.39;45.69
63708;BME280;67643;-34.198;22.084;2023-07-13T00:42:14;101567.32;;;15.40;45.69
63708;BME280;67643;-34.198;22.084;2023-07-13T00:45:00;101567.13;;;15.13;45.68
63708;BME280;67643;-34.198;22.084;2023-07-13T00:47:28;101563.30;;;15.28;45.88
63708;BME280;67643;-34.198;22.084;2023-07-13T00:49:56;101561.51;;;15.05;45.80
63708;BME280;67643;-34.198;22.084;2023-07-13T00:52:25;101561.50;;;14.94;45.94
63708;BME280;67643;-34.198;22.084;2023-07-13T00:54:55;101561.79;;;15.38;45.60
63708;BME280;67643;-34.198;22.084;2023-07-13T00:57:26;101565.41;;;15.27;45.78
63708;BME280;67643;-34.198;22.084;2023-07-13T00:59:58;101566.79;;;15.20;45.53
63708;BME280;67643;-34.198;22.084;2023-07-13T01:02:29;101567.40;;;14.99;45.90
63708;BME280;67643;-34.198;22.084;2023-07-13T01:04:57;101564.85;;;15.25;45.80
63708;BME280;67643;-34.198;22.084;2023-07-13T01:07:26;101560.30;;;15.10;45.72
63708;BME280;67643;-34.198;22.084;2023-07-13T01:09:54;101559.11;;;15.32;45.78
63708;BME280;67643;-34.198;22.084;2023-07-13T01:12:23;101561.72;;;15.33;45.64
63708;BME280;67643;-34.198;22.084;2023-07-13T01:14:58;101560.15;;;15.38;45.57
63708;BME280;67643;-34.198;22.084;2023-07-13T01:17:28;101559.47;;;15.50;45.69
63708;BME280;67643;-34.198;22.084;2023-07-13T01:19:57;101555.68;;;15.08;45.67
63708;BME280;67643;-34.198;22.084;2023-07-13T01:22:25;101552.93;;;15.13;45.55
63708;BME280;67643;-34.198;22.084;2023-07-13T01:24:55;101547.61;;;15.50;45.59
63708;BME280;67643;-34.198;22.084;2023-07-13T01:27:25;101542.50;;;15.20;45.72
63708;BME280;67643;-34.198;22.084;2023-07-13T01:29:54;101543.23;;;15.05;45.54
63708;BME280;67643;-34.198;22.084;2023-07-13T01:32:24;101544.18;;;15.24;45.57
63708;BME280;67643;-34.198;22.084;2023-07-13T01:34:53;101544.59;;;15.20;45.59
63708;BME280;67643;-34.198;22.084;2023-07-13T01:37:23;101546.84;;;15.33;45.38
63708;BME280;67643;-34.198;22.084;2023-07-13T01:39:51;101547.61;;;15.41;45.52
63708;BME280;67643;-34.198;22.084;2023-07-13T01:42:19;101544.66;;;15.31;45.59
63708;BME280;67643;-34.198;22.084;2023-07-13T01:44:48;101540.94;;;15.34;45.50
63708;BME280;67643;-34.198;22.084;2023-07-13T01:47:17;101538.31;;;15.33;45.54
63708;BME280;67643;-34.198;22.084;2023-07-13T01:49:45;101538.05;;;14.96;45.73
63708;BME280;67643;-34.198;22.084;2023-07-13T01:52:13;101536.52;;;15.12;45.49
63708;BME280;67643;-34.198;22.084;2023-07-13T01:54:42;101535.20;;;14.86;45.49
63708;BME280;67643;-34.198;22.084;2023-07-13T01:57:10;101532.75;;;15.03;45.53
63708;BME280;67643;-34.198;22.084;2023-07-13T01:59:38;101529.26;;;15.31;45.47
63708;BME280;67643;-34.198;22.084;2023-07-13T02:02:07;101525.34;;;15.02;45.54
63708;BME280;67643;-34.198;22.084;2023-07-13T02:04:36;101525.95;;;15.07;45.42
63708;BME280;67643;-34.198;22.084;2023-07-13T02:07:04;101521.51;;;15.26;45.53
63708;BME280;67643;-34.198;22.084;2023-07-13T02:09:33;101524.03;;;15.26;45.46
63708;BME280;67643;-34.198;22.084;2023-07-13T02:12:01;101522.86;;;15.13;45.30
63708;BME280;67643;-34.198;22.084;2023-07-13T02:14:30;101523.45;;;14.80;45.44
63708;BME280;67643;-34.198;22.084;2023-07-13T02:16:58;101521.90;;;15.31;45.31
63708;BME280;67643;-34.198;22.084;2023-07-13T02:19:26;101519.94;;;15.14;45.19
63708;BME280;67643;-34.198;22.084;2023-07-13T02:21:55;101519.08;;;14.91;45.26
63708;BME280;67643;-34.198;22.084;2023-07-13T02:24:23;101514.77;;;15.28;45.33
63708;BME280;67643;-34.198;22.084;2023-07-13T02:26:53;101513.67;;;14.98;45.43
63708;BME280;67643;-34.198;22.084;2023-07-13T02:29:21;101516.72;;;14.99;45.42
63708;BME280;67643;-34.198;22.084;2023-07-13T02:31:50;101519.63;;;15.06;45.30
63708;BME280;67643;-34.198;22.084;2023-07-13T02:34:18;101519.42;;;15.28;45.25
63708;BME280;67643;-34.198;22.084;2023-07-13T02:36:47;101515.54;;;14.76;45.41
63708;BME280;67643;-34.198;22.084;2023-07-13T02:39:15;101514.77;;;15.04;45.36
63708;BME280;67643;-34.198;22.084;2023-07-13T02:41:43;101514.72;;;15.23;45.37
63708;BME280;67643;-34.198;22.084;2023-07-13T02:44:13;101509.30;;;15.02;45.43
63708;BME280;67643;-34.198;22.084;2023-07-13T02:46:42;101505.24;;;15.06;45.46
63708;BME280;67643;-34.198;22.084;2023-07-13T02:49:10;101499.71;;;15.04;45.44
63708;BME280;67643;-34.198;22.084;2023-07-13T02:51:40;101495.74;;;15.14;45.63
63708;BME280;67643;-34.198;22.084;2023-07-13T02:54:09;101490.12;;;14.99;45.60
63708;BME280;67643;-34.198;22.084;2023-07-13T02:56:38;101485.68;;;15.22;45.53
63708;BME280;67643;-34.198;22.084;2023-07-13T02:59:06;101488.85;;;14.94;45.58
63708;BME280;67643;-34.198;22.084;2023-07-13T03:01:35;101486.44;;;15.09;45.71
63708;BME280;67643;-34.198;22.084;2023-07-13T03:04:04;101488.24;;;14.99;45.57
63708;BME280;67643;-34.198;22.084;2023-07-13T03:06:33;101487.72;;;15.22;45.51
63708;BME280;67643;-34.198;22.084;2023-07-13T03:09:02;101489.37;;;14.73;45.61
63708;BME280;67643;-34.198;22.084;2023-07-13T03:11:30;101485.12;;;15.02;45.46
63708;BME280;67643;-34.198;22.084;2023-07-13T03:13:59;101482.35;;;15.30;45.41
63708;BME280;67643;-34.198;22.084;2023-07-13T03:16:27;101484.29;;;15.20;45.54
63708;BME280;67643;-34.198;22.084;2023-07-13T03:18:56;101486.68;;;14.93;45.63
63708;BME280;67643;-34.198;22.084;2023-07-13T03:21:25;101486.34;;;15.12;45.73
63708;BME280;67643;-34.198;22.084;2023-07-13T03:23:53;101487.84;;;14.89;45.78
63708;BME280;67643;-34.198;22.084;2023-07-13T03:26:21;101485.44;;;15.10;45.57
63708;BME280;67643;-34.198;22.084;2023-07-13T03:28:51;101485.94;;;15.01;45.68
63708;BME280;67643;-34.198;22.084;2023-07-13T03:31:21;101484.67;;;15.11;45.53
63708;BME280;67643;-34.198;22.084;2023-07-13T03:33:50;101484.18;;;15.25;45.59
63708;BME280;67643;-34.198;22.084;2023-07-13T03:36:20;101483.79;;;14.75;45.72
63708;BME280;67643;-34.198;22.084;2023-07-13T03:38:52;101483.29;;;14.86;45.52
63708;BME280;67643;-34.198;22.084;2023-07-13T03:41:22;101488.69;;;15.11;45.95
63708;BME280;67643;-34.198;22.084;2023-07-13T03:43:50;101487.29;;;14.90;45.90
63708;BME280;67643;-34.198;22.084;2023-07-13T03:46:19;101486.87;;;15.09;45.92
63708;BME280;67643;-34.198;22.084;2023-07-13T03:48:48;101486.35;;;14.89;46.00
63708;BME280;67643;-34.198;22.084;2023-07-13T03:51:18;101484.20;;;15.25;45.82
63708;BME280;67643;-34.198;22.084;2023-07-13T03:53:48;101491.47;;;14.60;46.19
63708;BME280;67643;-34.198;22.084;2023-07-13T03:56:17;101496.35;;;14.90;45.97
63708;BME280;67643;-34.198;22.084;2023-07-13T03:58:48;101495.46;;;15.18;46.03
63708;BME280;67643;-34.198;22.084;2023-07-13T04:01:19;101493.17;;;15.17;46.09
63708;BME280;67643;-34.198;22.084;2023-07-13T04:03:47;101493.39;;;14.64;46.42
63708;BME280;67643;-34.198;22.084;2023-07-13T04:06:18;101495.55;;;14.74;46.25
63708;BME280;67643;-34.198;22.084;2023-07-13T04:08:47;101494.96;;;14.93;46.67
63708;BME280;67643;-34.198;22.084;2023-07-13T06:10:22;101545.24;;;11.32;63.79
63708;BME280;67643;-34.198;22.084;2023-07-13T06:12:51;101544.35;;;12.65;58.26
63708;BME280;67643;-34.198;22.084;2023-07-13T06:15:19;101541.48;;;13.27;54.95
63708;BME280;67643;-34.198;22.084;2023-07-13T06:17:47;101544.97;;;13.82;53.45
63708;BME280;67643;-34.198;22.084;2023-07-13T06:20:16;101543.23;;;14.35;52.10
63708;BME280;67643;-34.198;22.084;2023-07-13T06:22:44;101543.04;;;14.69;50.93
63708;BME280;67643;-34.198;22.084;2023-07-13T06:25:13;101543.05;;;14.54;51.17
63708;BME280;67643;-34.198;22.084;2023-07-13T06:27:41;101545.11;;;14.74;50.88
63708;BME280;67643;-34.198;22.084;2023-07-13T06:30:10;101544.23;;;14.63;50.14
63708;BME280;67643;-34.198;22.084;2023-07-13T06:32:40;101541.34;;;14.87;50.25
63708;BME280;67643;-34.198;22.084;2023-07-13T06:35:08;101540.27;;;15.06;49.72
63708;BME280;67643;-34.198;22.084;2023-07-13T06:37:36;101540.16;;;14.89;50.32
63708;BME280;67643;-34.198;22.084;2023-07-13T06:40:06;101540.72;;;15.27;49.79
63708;BME280;67643;-34.198;22.084;2023-07-13T06:42:34;101545.06;;;15.04;50.34
63708;BME280;67643;-34.198;22.084;2023-07-13T06:45:03;101545.22;;;15.29;50.09
63708;BME280;67643;-34.198;22.084;2023-07-13T06:47:32;101547.26;;;14.80;49.64
63708;BME280;67643;-34.198;22.084;2023-07-13T06:50:06;101548.64;;;14.94;49.62
63708;BME280;67643;-34.198;22.084;2023-07-13T06:52:34;101546.88;;;15.32;49.49
63708;BME280;67643;-34.198;22.084;2023-07-13T06:55:03;101551.27;;;15.06;49.72
63708;BME280;67643;-34.198;22.084;2023-07-13T06:57:31;101550.88;;;15.10;49.44
63708;BME280;67643;-34.198;22.084;2023-07-13T06:59:59;101551.23;;;15.31;49.75
63708;BME280;67643;-34.198;22.084;2023-07-13T07:02:28;101551.34;;;14.98;49.92
63708;BME280;67643;-34.198;22.084;2023-07-13T07:04:57;101553.76;;;14.98;50.52
63708;BME280;67643;-34.198;22.084;2023-07-13T07:07:26;101554.73;;;15.04;50.15
63708;BME280;67643;-34.198;22.084;2023-07-13T07:09:54;101558.55;;;14.99;50.40
63708;BME280;67643;-34.198;22.084;2023-07-13T07:12:24;101555.27;;;15.14;50.12
63708;BME280;67643;-34.198;22.084;2023-07-13T07:14:52;101556.64;;;15.04;50.20
63708;BME280;67643;-34.198;22.084;2023-07-13T07:17:20;101556.18;;;15.13;49.88
63708;BME280;67643;-34.198;22.084;2023-07-13T07:19:49;101555.27;;;15.27;50.32
63708;BME280;67643;-34.198;22.084;2023-07-13T07:22:17;101554.62;;;15.05;50.46
63708;BME280;67643;-34.198;22.084;2023-07-13T07:24:45;101554.51;;;15.33;49.81
63708;BME280;67643;-34.198;22.084;2023-07-13T07:27:14;101557.32;;;15.16;49.98
63708;BME280;67643;-34.198;22.084;2023-07-13T07:29:42;101559.13;;;15.27;49.70
63708;BME280;67643;-34.198;22.084;2023-07-13T07:32:10;101561.21;;;15.29;49.50
63708;BME280;67643;-34.198;22.084;2023-07-13T07:34:38;101563.00;;;15.48;49.69
63708;BME280;67643;-34.198;22.084;2023-07-13T07:37:09;101563.82;;;15.27;49.89
63708;BME280;67643;-34.198;22.084;2023-07-13T07:39:39;101562.55;;;15.22;50.04
63708;BME280;67643;-34.198;22.084;2023-07-13T07:42:08;101561.08;;;15.12;50.16
63708;BME280;67643;-34.198;22.084;2023-07-13T07:44:36;101560.22;;;15.25;49.73
63708;BME280;67643;-34.198;22.084;2023-07-13T07:47:05;101561.35;;;15.16;49.94
63708;BME280;67643;-34.198;22.084;2023-07-13T07:49:34;101561.01;;;15.39;49.46
63708;BME280;67643;-34.198;22.084;2023-07-13T07:52:02;101554.82;;;14.94;49.79
63708;BME280;67643;-34.198;22.084;2023-07-13T07:54:32;101553.33;;;15.44;50.01
63708;BME280;67643;-34.198;22.084;2023-07-13T07:57:01;101555.01;;;15.32;50.13
63708;BME280;67643;-34.198;22.084;2023-07-13T07:59:29;101556.97;;;15.22;50.30
63708;BME280;67643;-34.198;22.084;2023-07-13T08:01:57;101555.70;;;15.16;50.51
63708;BME280;67643;-34.198;22.084;2023-07-13T08:04:25;101555.98;;;15.02;49.97
63708;BME280;67643;-34.198;22.084;2023-07-13T08:06:54;101556.69;;;15.24;50.61
63708;BME280;67643;-34.198;22.084;2023-07-13T08:09:23;101556.62;;;15.28;50.01
63708;BME280;67643;-34.198;22.084;2023-07-13T08:11:51;101553.02;;;15.08;50.70
63708;BME280;67643;-34.198;22.084;2023-07-13T08:14:20;101551.88;;;15.12;50.48
63708;BME280;67643;-34.198;22.084;2023-07-13T08:16:49;101550.24;;;15.10;50.61
63708;BME280;67643;-34.198;22.084;2023-07-13T08:19:17;101549.79;;;15.12;50.64
63708;BME280;67643;-34.198;22.084;2023-07-13T08:21:46;101549.51;;;15.25;50.76
63708;BME280;67643;-34.198;22.084;2023-07-13T08:24:15;101547.38;;;15.20;50.46
63708;BME280;67643;-34.198;22.084;2023-07-13T08:26:44;101547.25;;;15.08;51.23
63708;BME280;67643;-34.198;22.084;2023-07-13T08:29:14;101541.64;;;15.27;50.85
63708;BME280;67643;-34.198;22.084;2023-07-13T08:31:42;101545.61;;;15.14;51.11
63708;BME280;67643;-34.198;22.084;2023-07-13T08:34:11;101551.49;;;14.97;51.12
63708;BME280;67643;-34.198;22.084;2023-07-13T08:36:39;101553.03;;;14.97;51.10
63708;BME280;67643;-34.198;22.084;2023-07-13T08:39:08;101555.68;;;15.09;50.88
63708;BME280;67643;-34.198;22.084;2023-07-13T08:41:36;101555.62;;;15.08;50.86
63708;BME280;67643;-34.198;22.084;2023-07-13T08:44:15;101554.62;;;15.09;50.86
63708;BME280;67643;-34.198;22.084;2023-07-13T08:46:48;101555.45;;;15.13;50.99
63708;BME280;67643;-34.198;22.084;2023-07-13T08:49:21;101555.78;;;15.12;50.92
63708;BME280;67643;-34.198;22.084;2023-07-13T08:51:52;101556.60;;;15.18;50.87
63708;BME280;67643;-34.198;22.084;2023-07-13T08:54:27;101555.55;;;15.15;51.08
63708;BME280;67643;-34.198;22.084;2023-07-13T08:56:57;101550.35;;;15.19;50.90
63708;BME280;67643;-34.198;22.084;2023-07-13T08:59:28;101551.11;;;15.29;50.60
63708;BME280;67643;-34.198;22.084;2023-07-13T09:02:21;101547.68;;;15.36;50.40
63708;BME280;67643;-34.198;22.084;2023-07-13T09:04:54;101542.91;;;15.10;50.60
63708;BME280;67643;-34.198;22.084;2023-07-13T09:07:44;101544.81;;;15.41;50.47
63708;BME280;67643;-34.198;22.084;2023-07-13T09:10:23;101542.06;;;15.37;50.81
63708;BME280;67643;-34.198;22.084;2023-07-13T09:13:06;101538.89;;;15.34;50.83
63708;BME280;67643;-34.198;22.084;2023-07-13T09:15:39;101540.55;;;15.44;50.69
63708;BME280;67643;-34.198;22.084;2023-07-13T09:18:14;101534.07;;;15.34;50.72
63708;BME280;67643;-34.198;22.084;2023-07-13T09:20:55;101532.51;;;15.39;50.77
63708;BME280;67643;-34.198;22.084;2023-07-13T09:23:28;101526.52;;;15.23;50.56
63708;BME280;67643;-34.198;22.084;2023-07-13T09:26:02;101521.05;;;15.25;50.73
63708;BME280;67643;-34.198;22.084;2023-07-13T09:28:39;101519.74;;;15.12;50.62
63708;BME280;67643;-34.198;22.084;2023-07-13T09:31:13;101514.52;;;15.42;50.27
63708;BME280;67643;-34.198;22.084;2023-07-13T09:33:42;101513.93;;;15.36;50.27
63708;BME280;67643;-34.198;22.084;2023-07-13T09:36:19;101510.61;;;15.44;50.29
63708;BME280;67643;-34.198;22.084;2023-07-13T09:38:49;101510.77;;;15.48;50.39
63708;BME280;67643;-34.198;22.084;2023-07-13T09:41:28;101507.80;;;15.59;50.38
63708;BME280;67643;-34.198;22.084;2023-07-13T09:44:09;101510.43;;;15.88;50.34
63708;BME280;67643;-34.198;22.084;2023-07-13T09:46:42;101514.83;;;15.68;50.26
63708;BME280;67643;-34.198;22.084;2023-07-13T09:49:12;101513.61;;;15.99;50.29
63708;BME280;67643;-34.198;22.084;2023-07-13T09:51:42;101514.52;;;15.79;50.37
63708;BME280;67643;-34.198;22.084;2023-07-13T09:54:20;101510.80;;;15.86;50.15
63708;BME280;67643;-34.198;22.084;2023-07-13T09:56:48;101506.81;;;15.94;50.20
63708;BME280;67643;-34.198;22.084;2023-07-13T09:59:23;101498.49;;;15.85;50.11
63708;BME280;67643;-34.198;22.084;2023-07-13T10:01:52;101491.60;;;15.80;50.00
63708;BME280;67643;-34.198;22.084;2023-07-13T10:04:27;101488.10;;;15.82;50.00
63708;BME280;67643;-34.198;22.084;2023-07-13T10:07:06;101479.25;;;16.30;50.15
63708;BME280;67643;-34.198;22.084;2023-07-13T10:09:34;101475.00;;;15.86;50.12
63708;BME280;67643;-34.198;22.084;2023-07-13T10:12:03;101466.14;;;16.16;49.93
63708;BME280;67643;-34.198;22.084;2023-07-13T10:14:32;101456.68;;;15.93;50.03
63708;BME280;67643;-34.198;22.084;2023-07-13T10:17:03;101455.31;;;16.25;49.92
63708;BME280;67643;-34.198;22.084;2023-07-13T10:19:34;101451.33;;;16.07;49.90
63708;BME280;67643;-34.198;22.084;2023-07-13T10:22:12;101442.29;;;16.17;49.87
63708;BME280;67643;-34.198;22.084;2023-07-13T10:24:43;101432.20;;;16.57;49.61
63708;BME280;67643;-34.198;22.084;2023-07-13T10:27:17;101433.74;;;16.27;50.39
63708;BME280;67643;-34.198;22.084;2023-07-13T10:29:47;101431.80;;;16.26;49.90
63708;BME280;67643;-34.198;22.084;2023-07-13T10:32:17;101427.99;;;16.63;49.99
63708;BME280;67643;-34.198;22.084;2023-07-13T10:34:48;101428.25;;;16.43;49.99
63708;BME280;67643;-34.198;22.084;2023-07-13T10:37:20;101424.51;;;16.52;49.85
63708;BME280;67643;-34.198;22.084;2023-07-13T10:39:51;101418.39;;;16.65;49.48
63708;BME280;67643;-34.198;22.084;2023-07-13T10:42:29;101407.79;;;16.53;49.52
63708;BME280;67643;-34.198;22.084;2023-07-13T10:44:59;101402.47;;;16.76;49.48
63708;BME280;67643;-34.198;22.084;2023-07-13T10:47:27;101397.69;;;16.61;49.30
63708;BME280;67643;-34.198;22.084;2023-07-13T10:49:57;101391.12;;;17.00;49.47
63708;BME280;67643;-34.198;22.084;2023-07-13T10:52:46;101389.22;;;16.53;49.52
63708;BME280;67643;-34.198;22.084;2023-07-13T10:55:59;101385.59;;;16.61;49.36
63708;BME280;67643;-34.198;22.084;2023-07-13T10:58:33;101377.52;;;16.58;49.97
63708;BME280;67643;-34.198;22.084;2023-07-13T11:01:08;101370.23;;;16.53;49.63
63708;BME280;67643;-34.198;22.084;2023-07-13T11:03:46;101372.17;;;16.84;49.43
63708;BME280;67643;-34.198;22.084;2023-07-13T11:06:28;101373.83;;;16.70;49.37
63708;BME280;67643;-34.198;22.084;2023-07-13T11:09:00;101366.41;;;16.67;49.62
63708;BME280;67643;-34.198;22.084;2023-07-13T11:11:38;101359.69;;;16.86;49.41
63708;BME280;67643;-34.198;22.084;2023-07-13T11:14:27;101360.22;;;16.66;49.35
63708;BME280;67643;-34.198;22.084;2023-07-13T11:16:57;101356.55;;;16.62;48.96
63708;BME280;67643;-34.198;22.084;2023-07-13T11:19:39;101351.98;;;16.93;48.86
63708;BME280;67643;-34.198;22.084;2023-07-13T11:22:23;101344.02;;;17.10;48.68
63708;BME280;67643;-34.198;22.084;2023-07-13T11:24:58;101340.97;;;16.68;48.81
63708;BME280;67643;-34.198;22.084;2023-07-13T11:27:36;101341.91;;;17.04;48.65
63708;BME280;67643;-34.198;22.084;2023-07-13T11:30:40;101344.70;;;16.77;48.65
63708;BME280;67643;-34.198;22.084;2023-07-13T11:33:14;101339.67;;;16.75;48.66
63708;BME280;67643;-34.198;22.084;2023-07-13T11:35:48;101332.80;;;17.31;48.54
63708;BME280;67643;-34.198;22.084;2023-07-13T11:38:20;101335.03;;;17.20;48.43
63708;BME280;67643;-34.198;22.084;2023-07-13T11:40:51;101329.95;;;17.38;48.35
63708;BME280;67643;-34.198;22.084;2023-07-13T11:43:21;101323.53;;;16.73;48.61
63708;BME280;67643;-34.198;22.084;2023-07-13T11:45:51;101320.85;;;16.68;48.73
63708;BME280;67643;-34.198;22.084;2023-07-13T11:48:23;101315.14;;;16.66;48.78
63708;BME280;67643;-34.198;22.084;2023-07-13T11:50:56;101313.56;;;16.60;48.85
63708;BME280;67643;-34.198;22.084;2023-07-13T11:53:29;101312.59;;;16.72;48.67
63708;BME280;67643;-34.198;22.084;2023-07-13T11:55:58;101307.28;;;16.73;48.67
63708;BME280;67643;-34.198;22.084;2023-07-13T11:58:28;101300.03;;;16.73;48.65
63708;BME280;67643;-34.198;22.084;2023-07-13T12:00:59;101296.77;;;16.78;48.54
63708;BME280;67643;-34.198;22.084;2023-07-13T12:03:30;101295.57;;;16.70;48.74
63708;BME280;67643;-34.198;22.084;2023-07-13T14:09:17;101227.20;;;14.05;61.51
63708;BME280;67643;-34.198;22.084;2023-07-13T14:11:47;101222.03;;;15.43;56.98
63708;BME280;67643;-34.198;22.084;2023-07-13T14:14:21;101215.05;;;16.06;54.48
63708;BME280;67643;-34.198;22.084;2023-07-13T14:16:52;101211.63;;;16.46;52.85
63708;BME280;67643;-34.198;22.084;2023-07-13T14:19:21;101208.10;;;16.93;51.66
63708;BME280;67643;-34.198;22.084;2023-07-13T14:21:50;101205.44;;;17.14;51.21
63708;BME280;67643;-34.198;22.084;2023-07-13T14:24:19;101202.49;;;17.16;50.73
63708;BME280;67643;-34.198;22.084;2023-07-13T14:26:48;101201.20;;;17.13;50.67
63708;BME280;67643;-34.198;22.084;2023-07-13T14:29:19;101199.94;;;17.09;50.67
63708;BME280;67643;-34.198;22.084;2023-07-13T14:31:47;101201.22;;;17.08;50.60
63708;BME280;67643;-34.198;22.084;2023-07-13T14:34:15;101194.13;;;16.96;50.44
63708;BME280;67643;-34.198;22.084;2023-07-13T14:36:46;101195.35;;;17.18;50.36
63708;BME280;67643;-34.198;22.084;2023-07-13T14:39:17;101193.51;;;16.90;50.47
63708;BME280;67643;-34.198;22.084;2023-07-13T14:41:46;101197.51;;;17.07;50.51
63708;BME280;67643;-34.198;22.084;2023-07-13T14:44:15;101198.39;;;17.12;50.41
63708;BME280;67643;-34.198;22.084;2023-07-13T14:46:45;101197.74;;;17.14;50.41
63708;BME280;67643;-34.198;22.084;2023-07-13T14:49:20;101197.37;;;16.92;50.32
63708;BME280;67643;-34.198;22.084;2023-07-13T14:51:49;101196.78;;;16.99;50.61
63708;BME280;67643;-34.198;22.084;2023-07-13T14:54:18;101199.07;;;16.92;50.75
63708;BME280;67643;-34.198;22.084;2023-07-13T14:56:47;101195.14;;;17.16;50.19
63708;BME280;67643;-34.198;22.084;2023-07-13T14:59:15;101200.76;;;16.36;50.75
63708;BME280;67643;-34.198;22.084;2023-07-13T15:01:44;101198.17;;;17.01;50.39
63708;BME280;67643;-34.198;22.084;2023-07-13T15:04:13;101199.07;;;16.70;50.56
63708;BME280;67643;-34.198;22.084;2023-07-13T15:06:59;101201.77;;;16.84;50.62
63708;BME280;67643;-34.198;22.084;2023-07-13T15:09:29;101198.12;;;16.55;50.73
63708;BME280;67643;-34.198;22.084;2023-07-13T15:11:58;101197.30;;;16.78;50.68
63708;BME280;67643;-34.198;22.084;2023-07-13T15:14:27;101196.63;;;16.50;50.75
63708;BME280;67643;-34.198;22.084;2023-07-13T15:16:56;101195.32;;;16.77;50.69
63708;BME280;67643;-34.198;22.084;2023-07-13T15:19:25;101191.99;;;16.61;50.92
63708;BME280;67643;-34.198;22.084;2023-07-13T15:21:55;101187.83;;;16.69;50.70
63708;BME280;67643;-34.198;22.084;2023-07-13T15:24:24;101187.11;;;16.48;50.51
63708;BME280;67643;-34.198;22.084;2023-07-13T15:26:53;101183.68;;;16.80;50.43
63708;BME280;67643;-34.198;22.084;2023-07-13T15:29:21;101183.40;;;16.59;50.80
63708;BME280;67643;-34.198;22.084;2023-07-13T15:31:50;101184.72;;;16.71;50.83
63708;BME280;67643;-34.198;22.084;2023-07-13T15:34:23;101186.31;;;16.51;50.81
63708;BME280;67643;-34.198;22.084;2023-07-13T15:36:52;101185.28;;;16.19;51.33
63708;BME280;67643;-34.198;22.084;2023-07-13T15:39:21;101184.18;;;16.38;51.06
63708;BME280;67643;-34.198;22.084;2023-07-13T15:41:50;101182.09;;;16.51;50.71
63708;BME280;67643;-34.198;22.084;2023-07-13T15:44:25;101181.10;;;16.33;50.84
63708;BME280;67643;-34.198;22.084;2023-07-13T15:46:55;101181.25;;;16.27;50.64
63708;BME280;67643;-34.198;22.084;2023-07-13T15:49:24;101182.66;;;16.42;50.74
63708;BME280;67643;-34.198;22.084;2023-07-13T15:51:52;101184.65;;;16.45;50.50
63708;BME280;67643;-34.198;22.084;2023-07-13T15:54:20;101178.76;;;16.36;50.62
63708;BME280;67643;-34.198;22.084;2023-07-13T15:56:53;101178.87;;;16.36;50.64
63708;BME280;67643;-34.198;22.084;2023-07-13T15:59:23;101178.89;;;16.27;50.73
63708;BME280;67643;-34.198;22.084;2023-07-13T16:01:51;101176.21;;;16.26;50.90
63708;BME280;67643;-34.198;22.084;2023-07-13T16:04:19;101175.94;;;16.35;50.88
63708;BME280;67643;-34.198;22.084;2023-07-13T16:06:48;101177.22;;;16.16;50.75
63708;BME280;67643;-34.198;22.084;2023-07-13T16:09:20;101173.81;;;16.19;50.84
63708;BME280;67643;-34.198;22.084;2023-07-13T16:11:51;101171.85;;;16.58;50.02
63708;BME280;67643;-34.198;22.084;2023-07-13T16:14:19;101167.85;;;16.72;49.82
63708;BME280;67643;-34.198;22.084;2023-07-13T16:16:48;101166.61;;;16.85;49.26
63708;BME280;67643;-34.198;22.084;2023-07-13T16:19:16;101165.14;;;16.84;49.27
63708;BME280;67643;-34.198;22.084;2023-07-13T16:21:47;101162.52;;;16.88;49.11
63708;BME280;67643;-34.198;22.084;2023-07-13T16:24:20;101164.84;;;16.81;49.33
63708;BME280;67643;-34.198;22.084;2023-07-13T16:26:50;101164.12;;;16.40;49.36
63708;BME280;67643;-34.198;22.084;2023-07-13T16:29:20;101163.73;;;17.00;49.27
63708;BME280;67643;-34.198;22.084;2023-07-13T16:31:58;101162.92;;;17.01;49.08
63708;BME280;67643;-34.198;22.084;2023-07-13T16:34:27;101163.92;;;17.04;49.03
63708;BME280;67643;-34.198;22.084;2023-07-13T16:36:56;101160.25;;;16.94;48.72
63708;BME280;67643;-34.198;22.084;2023-07-13T16:39:26;101160.92;;;17.04;48.96
63708;BME280;67643;-34.198;22.084;2023-07-13T16:41:58;101158.38;;;17.10;49.11
63708;BME280;67643;-34.198;22.084;2023-07-13T16:44:31;101154.90;;;17.09;49.07
63708;BME280;67643;-34.198;22.084;2023-07-13T16:47:01;101153.52;;;17.21;48.89
63708;BME280;67643;-34.198;22.084;2023-07-13T16:49:31;101153.05;;;17.24;48.97
63708;BME280;67643;-34.198;22.084;2023-07-13T16:52:00;101152.53;;;17.20;49.07